Time;durP1;ratioP1;P1;durP2;ratioP2;P2;SDS_P1;SDS_P2;PMS_P1;PMS_P2;Temp;Humidity;BMP_temperature;BMP_pressure;BME280_temperature;BME280_humidity;BME280_pressure;Samples;Min_cycle;Max_cycle;Signal;HPM_P1;HPM_P2
2023/05/11 00:01:32;;;;;;;3.60;1.50;;;;;;;7.21;100.00;100666.25;105581;1253;76261;-56
2023/05/11 00:03:59;;;;;;;8.30;1.40;;;;;;;7.22;100.00;100666.70;105873;1254;69490;-59
2023/05/11 00:06:27;;;;;;;2.50;1.20;;;;;;;7.24;100.00;100667.03;105443;1254;75146;-55
2023/05/11 00:08:54;;;;;;;2.90;1.20;;;;;;;7.26;100.00;100665.11;105481;1254;61622;-56
2023/05/11 00:11:22;;;;;;;2.50;1.30;;;;;;;7.32;100.00;100666.71;105451;1254;62695;-56
2023/05/11 00:13:49;;;;;;;2.40;1.30;;;;;;;7.36;100.00;100666.65;105340;1257;76028;-55
2023/05/11 00:16:17;;;;;;;4.30;1.50;;;;;;;7.39;100.00;100670.05;105666;1254;68483;-54
2023/05/11 00:18:44;;;;;;;4.30;1.60;;;;;;;7.40;100.00;100672.38;105403;1254;74345;-53
2023/05/11 00:21:11;;;;;;;3.80;1.50;;;;;;;7.42;100.00;100675.07;105544;1254;61732;-52
2023/05/11 00:23:38;;;;;;;2.70;1.40;;;;;;;7.45;100.00;100672.53;105559;1256;61722;-57
2023/05/11 00:26:05;;;;;;;4.20;1.60;;;;;;;7.45;100.00;100673.02;105311;1258;76031;-54
2023/05/11 00:28:33;;;;;;;4.10;1.50;;;;;;;7.47;100.00;100677.02;105464;1254;68526;-55
2023/05/11 00:31:00;;;;;;;4.20;1.50;;;;;;;7.49;100.00;100677.78;105283;1254;75049;-54
2023/05/11 00:33:27;;;;;;;5.80;1.30;;;;;;;7.52;100.00;100681.89;105361;1254;63407;-53
2023/05/11 00:35:54;;;;;;;3.70;1.70;;;;;;;7.53;100.00;100682.57;105403;1253;62924;-55
2023/05/11 00:38:21;;;;;;;3.40;1.80;;;;;;;7.54;100.00;100680.80;105145;1258;76414;-54
2023/05/11 00:40:49;;;;;;;3.40;1.70;;;;;;;7.55;100.00;100679.67;105132;1254;69607;-54
2023/05/11 00:43:16;;;;;;;3.60;1.70;;;;;;;7.55;100.00;100680.81;105471;1254;75331;-54
2023/05/11 00:45:46;;;;;;;4.70;1.80;;;;;;;7.57;100.00;100683.40;105438;1256;62878;-54
2023/05/11 00:48:14;;;;;;;3.00;1.50;;;;;;;7.57;100.00;100681.71;105599;1254;63106;-53
2023/05/11 00:50:42;;;;;;;3.70;1.70;;;;;;;7.57;100.00;100680.67;105458;1257;76862;-55
2023/05/11 00:53:10;;;;;;;5.00;1.60;;;;;;;7.56;100.00;100675.71;105699;1253;69375;-54
2023/05/11 00:55:37;;;;;;;3.10;1.70;;;;;;;7.55;100.00;100679.26;105331;1254;75466;-54
2023/05/11 00:58:04;;;;;;;3.70;1.70;;;;;;;7.53;100.00;100677.92;105480;1254;62093;-54
2023/05/11 01:00:32;;;;;;;3.40;1.40;;;;;;;7.52;100.00;100676.64;105501;1253;62485;-54
2023/05/11 01:02:59;;;;;;;4.00;1.10;;;;;;;7.52;100.00;100679.71;105657;1255;76164;-54
2023/05/11 01:05:33;;;;;;;2.80;1.60;;;;;;;7.55;100.00;100680.70;105386;1259;69640;-59
2023/05/11 01:08:14;;;;;;;4.20;1.70;;;;;;;7.55;100.00;100677.57;105074;1254;75262;-54
2023/05/11 01:10:48;;;;;;;4.40;1.70;;;;;;;7.57;100.00;100676.66;105535;1253;62605;-54
2023/05/11 01:13:21;;;;;;;3.40;1.60;;;;;;;7.60;100.00;100679.17;105109;1253;62548;-58
2023/05/11 01:15:52;;;;;;;2.90;1.20;;;;;;;7.62;100.00;100675.86;105169;1253;76633;-58
2023/05/11 01:18:33;;;;;;;3.90;1.50;;;;;;;7.65;100.00;100673.52;105430;1253;69478;-54
2023/05/11 01:21:05;;;;;;;6.00;1.80;;;;;;;7.65;100.00;100669.87;105477;1258;75121;-58
2023/05/11 01:24:07;;;;;;;2.90;1.30;;;;;;;7.65;100.00;100670.38;105354;1255;61038;-54
2023/05/11 01:27:02;;;;;;;3.60;1.20;;;;;;;7.66;100.00;100668.75;105958;1253;62950;-54
2023/05/11 01:30:24;;;;;;;2.90;1.30;;;;;;;7.63;100.00;100670.86;105210;1254;76265;-55
2023/05/11 01:33:02;;;;;;;2.30;1.20;;;;;;;7.63;100.00;100670.18;104764;1265;69618;-54
2023/05/11 01:35:30;;;;;;;3.20;1.30;;;;;;;7.64;100.00;100670.25;105864;1254;75022;-59
2023/05/11 01:37:58;;;;;;;3.60;1.30;;;;;;;7.66;100.00;100670.04;104906;1259;61785;-55
2023/05/11 01:40:28;;;;;;;3.80;1.40;;;;;;;7.66;100.00;100667.80;105035;1253;62837;-56
2023/05/11 01:43:03;;;;;;;3.30;1.30;;;;;;;7.67;100.00;100664.79;105403;1254;75195;-55
2023/05/11 01:45:33;;;;;;;3.80;1.40;;;;;;;7.68;100.00;100667.77;105409;1258;68611;-59
2023/05/11 01:48:02;;;;;;;3.90;1.10;;;;;;;7.69;100.00;100670.34;105394;1259;75596;-55
2023/05/11 01:50:29;;;;;;;3.60;1.60;;;;;;;7.69;100.00;100666.33;105661;1260;63756;-55
2023/05/11 01:52:57;;;;;;;3.40;1.50;;;;;;;7.68;100.00;100672.34;105436;1254;62329;-56
2023/05/11 01:55:24;;;;;;;2.90;1.10;;;;;;;7.65;100.00;100673.52;105902;1253;76368;-58
2023/05/11 01:57:52;;;;;;;2.80;1.40;;;;;;;7.62;100.00;100675.50;105563;1253;68224;-55
2023/05/11 02:00:20;;;;;;;2.80;1.50;;;;;;;7.61;100.00;100675.45;105581;1258;75536;-55
2023/05/11 02:02:47;;;;;;;4.30;1.30;;;;;;;7.57;100.00;100673.95;105614;1254;63500;-55
2023/05/11 02:05:20;;;;;;;3.30;1.40;;;;;;;7.54;100.00;100673.70;105450;1254;61799;-56
2023/05/11 02:07:49;;;;;;;3.10;1.20;;;;;;;7.51;100.00;100673.67;105476;1259;76313;-55
2023/05/11 02:10:17;;;;;;;2.70;1.30;;;;;;;7.48;100.00;100674.27;105391;1258;69275;-55
2023/05/11 02:12:45;;;;;;;2.40;1.30;;;;;;;7.45;100.00;100674.58;105442;1254;74022;-53
2023/05/11 02:15:13;;;;;;;2.50;1.10;;;;;;;7.43;100.00;100673.10;105395;1254;62024;-54
2023/05/11 02:17:40;;;;;;;2.40;1.10;;;;;;;7.42;100.00;100670.77;105402;1253;63096;-58
2023/05/11 02:20:08;;;;;;;5.10;1.30;;;;;;;7.40;100.00;100676.43;105138;1254;74918;-53
2023/05/11 02:22:35;;;;;;;4.00;1.30;;;;;;;7.40;100.00;100675.10;105434;1258;65940;-53
2023/05/11 02:25:03;;;;;;;3.40;1.30;;;;;;;7.39;100.00;100674.48;105420;1260;73852;-53
2023/05/11 02:27:31;;;;;;;3.10;1.40;;;;;;;7.39;100.00;100672.60;105473;1254;62572;-57
2023/05/11 02:29:59;;;;;;;2.90;1.10;;;;;;;7.38;100.00;100673.17;105164;1253;61302;-58
2023/05/11 02:32:28;;;;;;;2.60;1.20;;;;;;;7.40;100.00;100673.58;105429;1252;75030;-56
2023/05/11 02:35:08;;;;;;;3.70;1.40;;;;;;;7.40;100.00;100672.44;105463;1259;69789;-54
2023/05/11 02:37:35;;;;;;;3.00;1.30;;;;;;;7.41;100.00;100672.08;105758;1258;75020;-58
2023/05/11 02:40:05;;;;;;;2.40;1.20;;;;;;;7.41;100.00;100670.81;105221;1254;63270;-54
2023/05/11 02:42:35;;;;;;;4.10;1.30;;;;;;;7.43;100.00;100670.51;105406;1259;61729;-54
2023/05/11 02:45:04;;;;;;;2.90;1.40;;;;;;;7.44;100.00;100675.74;105581;1254;75035;-58
2023/05/11 02:47:45;;;;;;;3.10;1.30;;;;;;;7.44;100.00;100675.36;105298;1254;68175;-58
2023/05/11 02:50:14;;;;;;;2.40;1.00;;;;;;;7.46;100.00;100677.27;105116;1259;72830;-55
2023/05/11 02:52:44;;;;;;;2.80;1.00;;;;;;;7.47;100.00;100672.45;105536;1256;64495;-55
2023/05/11 02:55:11;;;;;;;3.20;1.40;;;;;;;7.50;100.00;100676.31;105151;1256;316041;-58
2023/05/11 02:57:38;;;;;;;3.90;1.50;;;;;;;7.53;100.00;100674.70;105365;1254;76020;-55
2023/05/11 03:00:07;;;;;;;2.00;1.00;;;;;;;7.56;100.00;100679.50;105248;1254;69292;-56
2023/05/11 03:02:34;;;;;;;3.30;1.80;;;;;;;7.60;100.00;100678.63;105316;1254;75252;-55
2023/05/11 03:05:03;;;;;;;3.10;1.10;;;;;;;7.65;100.00;100681.29;105849;1253;61517;-57
2023/05/11 03:07:31;;;;;;;2.90;1.50;;;;;;;7.70;100.00;100686.44;105575;1254;61490;-55
2023/05/11 03:10:00;;;;;;;2.70;1.00;;;;;;;7.74;100.00;100681.43;105266;1258;76350;-55
2023/05/11 03:12:32;;;;;;;4.40;1.40;;;;;;;7.78;100.00;100682.33;105551;1254;69382;-54
2023/05/11 03:15:01;;;;;;;3.90;1.50;;;;;;;7.82;100.00;100687.29;105619;1253;74876;-59
2023/05/11 03:17:29;;;;;;;2.50;1.00;;;;;;;7.88;100.00;100684.17;105565;1254;63187;-55
2023/05/11 03:19:57;;;;;;;2.60;1.10;;;;;;;7.93;100.00;100685.48;105357;1254;62021;-54
2023/05/11 03:22:24;;;;;;;2.90;1.20;;;;;;;7.99;100.00;100684.05;105313;1259;76365;-55
2023/05/11 03:24:51;;;;;;;2.30;1.20;;;;;;;8.02;100.00;100682.48;105727;1254;69574;-57
2023/05/11 03:27:19;;;;;;;4.20;1.10;;;;;;;8.06;100.00;100684.91;105027;1254;74106;-55
2023/05/11 03:29:47;;;;;;;3.90;1.50;;;;;;;8.12;100.00;100682.71;105373;1251;64588;-55
2023/05/11 03:32:14;;;;;;;2.90;1.50;;;;;;;8.19;100.00;100682.19;105516;1253;62799;-56
2023/05/11 03:34:41;;;;;;;5.00;2.10;;;;;;;8.26;100.00;100683.86;105084;1254;75149;-55
2023/05/11 03:37:11;;;;;;;3.30;1.30;;;;;;;8.31;100.00;100687.33;105404;1256;70040;-55
2023/05/11 03:39:40;;;;;;;3.20;1.30;;;;;;;8.36;100.00;100690.15;105695;1259;74640;-55
2023/05/11 03:42:07;;;;;;;3.70;1.30;;;;;;;8.43;100.00;100692.72;105437;1258;64556;-55
2023/05/11 03:44:35;;;;;;;2.80;1.10;;;;;;;8.52;100.00;100696.64;105430;1254;62599;-56
2023/05/11 03:47:03;;;;;;;3.50;1.20;;;;;;;8.62;100.00;100697.05;105195;1255;77011;-59
2023/05/11 03:49:30;;;;;;;2.60;1.30;;;;;;;8.71;100.00;100697.45;105545;1253;70138;-55
2023/05/11 03:51:58;;;;;;;2.80;1.20;;;;;;;8.78;100.00;100696.69;105269;1262;75070;-56
2023/05/11 03:54:25;;;;;;;2.70;1.40;;;;;;;8.87;100.00;100698.16;105308;1251;62858;-56
2023/05/11 03:56:52;;;;;;;3.40;1.30;;;;;;;8.94;100.00;100700.70;105422;1255;62500;-60
2023/05/11 03:59:19;;;;;;;2.50;1.30;;;;;;;9.02;100.00;100700.27;105202;1254;77015;-56
2023/05/11 04:01:50;;;;;;;4.10;1.50;;;;;;;9.10;100.00;100701.04;105394;1254;69490;-54
2023/05/11 04:04:18;;;;;;;11.80;2.20;;;;;;;9.17;100.00;100700.03;105242;1259;74141;-56
2023/05/11 04:06:45;;;;;;;4.10;1.30;;;;;;;9.23;100.00;100699.59;105784;1260;63520;-59
2023/05/11 04:09:17;;;;;;;3.90;1.60;;;;;;;9.31;100.00;100697.85;105447;1259;61400;-54
2023/05/11 04:11:44;;;;;;;5.20;1.30;;;;;;;9.39;100.00;100698.72;105235;1257;75148;-54
2023/05/11 04:14:11;;;;;;;2.70;1.20;;;;;;;9.48;100.00;100698.77;105458;1252;69788;-54
2023/05/11 04:16:38;;;;;;;3.20;1.10;;;;;;;9.57;100.00;100701.30;105382;1254;75186;-59
2023/05/11 04:19:06;;;;;;;2.60;1.40;;;;;;;9.66;100.00;100695.91;105074;1254;62834;-56
2023/05/11 04:21:34;;;;;;;3.10;1.20;;;;;;;9.73;100.00;100696.52;105453;1251;61521;-54
2023/05/11 04:24:03;;;;;;;5.10;1.20;;;;;;;9.81;100.00;100693.73;105459;1252;75211;-55
2023/05/11 04:26:30;;;;;;;3.80;1.20;;;;;;;9.89;100.00;100698.16;105630;1259;69398;-56
2023/05/11 04:28:57;;;;;;;4.40;1.20;;;;;;;9.98;100.00;100699.27;105436;1254;75508;-54
2023/05/11 04:31:24;;;;;;;2.40;1.20;;;;;;;10.05;100.00;100697.89;105198;1257;63044;-53
2023/05/11 04:33:52;;;;;;;2.60;1.10;;;;;;;10.10;100.00;100700.80;105519;1253;62446;-54
2023/05/11 04:36:21;;;;;;;2.30;1.00;;;;;;;10.13;100.00;100694.73;105669;1252;76883;-54
2023/05/11 04:38:48;;;;;;;3.10;1.20;;;;;;;10.15;100.00;100696.44;105318;1259;68297;-54
2023/05/11 04:41:15;;;;;;;5.20;1.10;;;;;;;10.16;100.00;100696.80;105510;1259;74964;-54
2023/05/11 04:43:43;;;;;;;2.40;1.10;;;;;;;10.19;100.00;100701.64;105418;1254;62557;-53
2023/05/11 04:46:11;;;;;;;3.00;1.10;;;;;;;10.22;100.00;100699.38;105470;1254;62825;-53
2023/05/11 04:48:38;;;;;;;2.70;1.00;;;;;;;10.24;100.00;100700.74;105595;1254;75176;-58
2023/05/11 04:51:05;;;;;;;3.50;1.00;;;;;;;10.25;100.00;100698.73;105445;1254;69617;-53
2023/05/11 04:53:37;;;;;;;2.70;1.20;;;;;;;10.28;100.00;100699.18;105294;1259;75417;-56
2023/05/11 04:56:05;;;;;;;4.20;1.60;;;;;;;10.33;100.00;100697.02;105121;1254;61597;-53
2023/05/11 04:58:32;;;;;;;3.90;1.30;;;;;;;10.40;100.00;100695.88;105433;1256;62207;-60
2023/05/11 05:01:00;;;;;;;3.40;1.50;;;;;;;10.51;100.00;100694.84;105390;1254;75488;-57
2023/05/11 05:03:27;;;;;;;4.10;1.40;;;;;;;10.62;100.00;100692.80;105695;1257;69991;-54
2023/05/11 05:05:54;;;;;;;5.20;1.70;;;;;;;10.73;100.00;100691.19;105508;1257;75163;-56
2023/05/11 05:08:22;;;;;;;2.90;1.30;;;;;;;10.86;100.00;100688.31;105322;1260;61832;-54
2023/05/11 05:10:49;;;;;;;3.20;1.10;;;;;;;10.96;100.00;100688.52;105486;1253;61714;-55
2023/05/11 05:13:16;;;;;;;4.50;0.90;;;;;;;11.04;100.00;100689.79;105044;1259;76231;-54
2023/05/11 05:15:43;;;;;;;3.80;1.20;;;;;;;11.13;100.00;100684.20;105190;1254;69945;-54
2023/05/11 05:18:11;;;;;;;1.60;0.70;;;;;;;11.21;100.00;100686.02;105288;1255;73972;-54
2023/05/11 05:20:38;;;;;;;3.60;0.80;;;;;;;11.28;100.00;100683.16;105515;1259;61728;-54
2023/05/11 05:23:05;;;;;;;4.80;1.00;;;;;;;11.36;100.00;100686.94;105874;1254;62654;-60
2023/05/11 05:25:33;;;;;;;2.40;1.10;;;;;;;11.45;100.00;100687.92;105358;1257;76133;-55
2023/05/11 05:28:00;;;;;;;1.80;0.80;;;;;;;11.57;100.00;100684.84;105793;1259;69596;-55
2023/05/11 05:30:27;;;;;;;2.60;1.10;;;;;;;11.70;100.00;100688.20;105732;1257;74842;-54
2023/05/11 05:32:54;;;;;;;2.40;0.70;;;;;;;11.80;100.00;100686.65;105395;1253;62181;-55
2023/05/11 05:35:21;;;;;;;3.70;0.90;;;;;;;11.88;100.00;100687.48;105062;1260;61725;-56
2023/05/11 05:37:48;;;;;;;2.60;0.90;;;;;;;11.99;100.00;100687.58;105376;1252;76030;-56
2023/05/11 05:40:16;;;;;;;1.70;0.80;;;;;;;12.09;100.00;100690.00;105292;1256;68328;-55
2023/05/11 05:42:47;;;;;;;2.40;1.00;;;;;;;12.16;100.00;100687.66;105519;1253;75219;-57
2023/05/11 05:45:18;;;;;;;3.60;1.30;;;;;;;12.12;100.00;100686.21;105393;1256;63740;-54
2023/05/11 05:47:47;;;;;;;3.60;1.20;;;;;;;12.04;100.00;100686.87;105274;1254;62082;-54
2023/05/11 05:50:15;;;;;;;3.60;1.00;;;;;;;11.98;100.00;100688.80;105364;1254;75311;-56
2023/05/11 05:52:44;;;;;;;4.50;1.30;;;;;;;11.96;100.00;100688.98;105640;1254;69504;-56
2023/05/11 05:55:12;;;;;;;2.50;1.10;;;;;;;11.97;100.00;100692.85;105318;1257;75348;-55
2023/05/11 05:57:39;;;;;;;4.60;1.20;;;;;;;12.00;100.00;100696.18;105437;1254;62612;-56
2023/05/11 06:00:09;;;;;;;2.30;0.80;;;;;;;12.02;100.00;100697.52;105613;1256;63045;-55
2023/05/11 06:02:40;;;;;;;3.30;1.00;;;;;;;12.11;100.00;100697.48;105555;1253;74947;-57
2023/05/11 06:05:10;;;;;;;;;;;;;;;12.22;100.00;100698.11;105579;1254;69707;-56
2023/05/11 06:07:38;;;;;;;2.20;1.00;;;;;;;12.23;100.00;100702.30;105188;1254;75036;-56
2023/05/11 06:10:05;;;;;;;4.30;1.30;;;;;;;12.28;100.00;100701.73;105416;1259;63064;-56
2023/05/11 06:12:33;;;;;;;3.20;1.20;;;;;;;12.37;100.00;100700.59;105331;1257;61599;-61
2023/05/11 06:15:00;;;;;;;3.80;1.40;;;;;;;12.45;100.00;100693.55;105152;1256;75136;-54
2023/05/11 06:17:28;;;;;;;2.80;1.30;;;;;;;12.55;100.00;100695.02;105504;1254;68486;-56
2023/05/11 06:19:56;;;;;;;2.40;1.30;;;;;;;12.68;100.00;100693.80;105332;1259;75104;-55
2023/05/11 06:22:25;;;;;;;1.80;1.10;;;;;;;12.86;100.00;100688.75;105307;1254;61799;-54
2023/05/11 06:24:52;;;;;;;3.20;1.00;;;;;;;13.00;100.00;100683.67;105357;1251;60542;-56
2023/05/11 06:27:20;;;;;;;3.40;1.30;;;;;;;13.07;100.00;100683.09;105544;1257;76351;-58
2023/05/11 06:29:47;;;;;;;3.50;1.20;;;;;;;13.22;100.00;100680.85;105534;1257;69561;-54
2023/05/11 06:32:15;;;;;;;3.50;1.40;;;;;;;13.43;100.00;100678.31;105338;1254;74166;-54
2023/05/11 06:34:42;;;;;;;3.70;1.40;;;;;;;13.66;100.00;100674.71;105779;1257;61727;-59
2023/05/11 06:37:09;;;;;;;2.70;1.30;;;;;;;13.89;98.78;100675.16;105126;1259;61741;-55
2023/05/11 06:39:37;;;;;;;2.60;1.00;;;;;;;14.17;96.14;100674.55;105637;1256;76387;-55
2023/05/11 06:42:06;;;;;;;2.70;1.10;;;;;;;14.49;89.85;100672.91;105455;1260;68989;-54
2023/05/11 06:44:34;;;;;;;3.30;1.20;;;;;;;14.83;83.13;100676.02;105402;1257;75351;-56
2023/05/11 06:47:04;;;;;;;3.00;1.10;;;;;;;15.12;82.26;100672.49;105553;1256;61771;-60
2023/05/11 06:49:31;;;;;;;2.10;1.10;;;;;;;15.48;80.96;100675.80;105332;1260;61238;-56
2023/05/11 06:51:59;;;;;;;3.10;1.20;;;;;;;15.81;72.44;100675.77;105404;1257;76391;-56
2023/05/11 06:54:26;;;;;;;2.60;1.30;;;;;;;16.01;63.46;100672.66;105448;1257;68670;-55
2023/05/11 06:56:53;;;;;;;2.40;1.10;;;;;;;16.06;62.13;100670.83;105562;1254;73819;-56
2023/05/11 06:59:20;;;;;;;4.60;1.50;;;;;;;16.09;61.24;100677.45;105505;1257;61449;-56
2023/05/11 07:01:47;;;;;;;3.00;1.10;;;;;;;16.20;59.39;100674.89;105198;1256;61931;-55
2023/05/11 07:04:15;;;;;;;2.00;1.10;;;;;;;16.37;59.08;100672.54;105394;1257;75885;-56
2023/05/11 07:06:42;;;;;;;3.90;1.10;;;;;;;16.54;59.41;100670.90;105324;1254;69188;-60
2023/05/11 07:09:09;;;;;;;2.20;0.90;;;;;;;16.74;61.17;100670.62;105390;1256;75648;-57
2023/05/11 07:11:36;;;;;;;3.70;1.30;;;;;;;17.02;60.55;100668.69;105472;1254;63029;-56
2023/05/11 07:14:04;;;;;;;2.80;1.50;;;;;;;17.29;56.82;100667.45;105652;1254;61504;-56
2023/05/11 07:16:31;;;;;;;2.30;1.00;;;;;;;17.58;52.28;100664.40;105698;1256;76187;-60
2023/05/11 07:18:59;;;;;;;3.10;1.40;;;;;;;17.89;50.13;100667.53;105139;1254;69928;-55
2023/05/11 07:21:26;;;;;;;3.40;1.30;;;;;;;18.20;49.24;100665.64;105558;1254;74786;-60
2023/05/11 07:23:53;;;;;;;3.00;1.20;;;;;;;18.48;48.89;100664.85;105448;1255;61893;-54
2023/05/11 07:26:20;;;;;;;4.80;1.10;;;;;;;18.76;47.03;100666.95;105545;1254;62776;-56
2023/05/11 07:28:48;;;;;;;2.50;1.10;;;;;;;18.94;45.70;100663.53;105449;1260;77020;-57
2023/05/11 07:31:15;;;;;;;4.80;1.50;;;;;;;19.05;45.15;100664.66;105243;1252;69396;-61
2023/05/11 07:33:42;;;;;;;4.60;1.60;;;;;;;19.12;44.41;100664.73;105150;1256;75351;-55
2023/05/11 07:36:09;;;;;;;3.30;1.40;;;;;;;19.15;43.42;100666.96;105434;1256;61962;-56
2023/05/11 07:38:36;;;;;;;3.40;1.60;;;;;;;19.11;42.55;100664.59;105664;1256;61677;-62
2023/05/11 07:41:03;;;;;;;5.80;1.40;;;;;;;19.02;42.23;100665.60;105370;1260;74980;-56
2023/05/11 07:43:33;;;;;;;4.10;1.70;;;;;;;18.89;41.34;100667.64;105254;1259;69903;-56
2023/05/11 07:46:00;;;;;;;3.00;1.20;;;;;;;18.65;41.96;100664.53;105412;1257;73954;-56
2023/05/11 07:48:27;;;;;;;2.90;1.20;;;;;;;18.52;41.93;100662.20;105353;1257;61494;-58
2023/05/11 07:50:54;;;;;;;2.60;1.30;;;;;;;18.56;41.66;100660.80;105502;1257;60699;-57
2023/05/11 07:53:22;;;;;;;2.20;1.00;;;;;;;18.94;41.16;100657.32;105765;1257;76384;-60
2023/05/11 07:55:49;;;;;;;3.20;1.10;;;;;;;19.56;41.30;100651.43;105172;1257;69528;-56
2023/05/11 07:58:16;;;;;;;2.40;1.10;;;;;;;20.35;39.90;100653.71;105229;1256;73770;-54
2023/05/11 08:00:43;;;;;;;4.00;1.40;;;;;;;20.95;37.24;100649.55;105428;1259;62744;-53
2023/05/11 08:03:10;;;;;;;4.40;1.10;;;;;;;21.12;34.74;100646.88;105394;1254;62751;-57
2023/05/11 08:05:38;;;;;;;3.90;1.00;;;;;;;20.93;34.60;100651.80;105402;1257;76450;-59
2023/05/11 08:08:05;;;;;;;3.70;1.20;;;;;;;20.71;34.23;100653.92;105332;1254;69922;-58
2023/05/11 08:10:32;;;;;;;4.70;1.40;;;;;;;20.60;34.79;100654.21;105348;1257;75399;-56
2023/05/11 08:12:59;;;;;;;1.50;0.80;;;;;;;20.48;33.98;100650.05;105147;1258;61846;-56
2023/05/11 08:15:26;;;;;;;2.90;1.10;;;;;;;20.26;34.42;100654.23;105578;1257;61474;-57
2023/05/11 08:17:54;;;;;;;2.80;1.30;;;;;;;20.22;34.46;100648.98;105691;1253;76369;-58
2023/05/11 08:20:22;;;;;;;2.90;1.20;;;;;;;20.25;33.92;100649.78;105615;1254;69504;-58
2023/05/11 08:22:49;;;;;;;1.90;0.70;;;;;;;20.23;32.86;100650.84;105681;1257;74205;-56
2023/05/11 08:25:16;;;;;;;3.30;1.10;;;;;;;20.28;33.11;100649.05;105639;1254;63248;-56
2023/05/11 08:27:44;;;;;;;2.50;0.90;;;;;;;20.51;33.36;100644.42;106271;1259;60857;-57
2023/05/11 08:30:12;;;;;;;2.20;1.20;;;;;;;20.88;32.73;100642.86;105676;1258;76301;-59
2023/05/11 08:32:39;;;;;;;3.30;0.90;;;;;;;21.25;32.07;100639.10;105485;1260;68624;-56
2023/05/11 08:35:09;;;;;;;6.00;1.30;;;;;;;21.51;31.30;100639.36;105709;1258;75086;-56
2023/05/11 08:37:36;;;;;;;2.60;1.10;;;;;;;21.67;30.95;100635.01;105924;1254;62923;-54
2023/05/11 08:40:04;;;;;;;3.60;1.00;;;;;;;21.83;30.79;100634.17;105837;1254;61423;-58
2023/05/11 08:42:32;;;;;;;2.30;0.80;;;;;;;21.92;30.48;100636.83;105492;1257;75775;-56
2023/05/11 08:45:00;;;;;;;2.90;1.00;;;;;;;21.99;29.16;100634.73;105767;1253;68238;-55
2023/05/11 08:47:27;;;;;;;1.90;1.00;;;;;;;21.88;29.60;100631.59;105791;1255;75048;-56
2023/05/11 08:49:55;;;;;;;2.60;1.00;;;;;;;22.02;29.80;100630.37;105885;1263;61763;-58
2023/05/11 08:52:22;;;;;;;1.90;1.10;;;;;;;22.36;29.09;100619.83;105985;1254;63044;-56
2023/05/11 08:54:49;;;;;;;1.90;1.00;;;;;;;22.60;29.11;100618.96;105744;1260;76127;-58
2023/05/11 08:57:17;;;;;;;3.20;1.40;;;;;;;22.94;28.93;100620.45;105723;1259;68503;-56
2023/05/11 08:59:47;;;;;;;2.20;1.10;;;;;;;23.16;28.09;100625.33;105464;1257;75167;-57
2023/05/11 09:02:16;;;;;;;1.60;1.00;;;;;;;23.01;27.44;100618.48;105539;1257;61668;-56
2023/05/11 09:04:44;;;;;;;2.30;1.10;;;;;;;22.34;27.24;100619.31;105808;1260;61768;-57
2023/05/11 09:07:16;;;;;;;2.90;1.20;;;;;;;21.66;28.62;100623.38;106163;1257;76769;-57
2023/05/11 09:09:44;;;;;;;2.40;1.00;;;;;;;21.50;28.96;100619.14;105904;1257;68373;-58
2023/05/11 09:12:12;;;;;;;3.20;1.50;;;;;;;21.73;28.87;100620.05;105882;1257;75228;-60
2023/05/11 09:14:39;;;;;;;1.90;1.00;;;;;;;21.99;28.00;100615.73;106218;1257;60775;-55
2023/05/11 09:17:06;;;;;;;2.90;1.00;;;;;;;22.03;28.32;100616.72;105654;1257;62645;-56
2023/05/11 09:19:34;;;;;;;3.60;1.30;;;;;;;22.00;27.77;100616.21;105400;1255;75931;-62
2023/05/11 09:22:01;;;;;;;5.90;1.60;;;;;;;21.80;27.90;100619.86;105663;1262;68536;-56
2023/05/11 09:24:28;;;;;;;3.50;1.30;;;;;;;21.65;27.71;100614.08;105389;1258;74858;-57
2023/05/11 09:27:08;;;;;;;2.20;0.90;;;;;;;21.57;27.76;100614.83;105708;1257;61913;-56
2023/05/11 09:29:35;;;;;;;5.50;1.00;;;;;;;21.60;28.06;100619.48;105650;1258;63193;-54
2023/05/11 09:32:03;;;;;;;2.20;0.90;;;;;;;21.67;27.37;100608.73;106012;1257;76094;-60
2023/05/11 09:34:30;;;;;;;2.60;0.90;;;;;;;21.57;27.48;100618.98;105762;1257;69873;-56
2023/05/11 09:36:57;;;;;;;5.70;1.20;;;;;;;21.50;27.93;100617.23;105712;1257;75162;-54
2023/05/11 09:39:35;;;;;;;2.70;0.90;;;;;;;21.31;27.52;100618.72;105893;1254;62793;-55
2023/05/11 09:42:22;;;;;;;5.10;0.80;;;;;;;20.77;28.29;100619.05;105372;1254;62677;-55
2023/05/11 09:44:51;;;;;;;2.10;0.70;;;;;;;20.50;29.04;100620.27;105921;1254;75248;-60
2023/05/11 09:47:21;;;;;;;2.30;0.70;;;;;;;20.47;28.68;100620.54;105742;1257;68454;-55
2023/05/11 09:49:48;;;;;;;3.90;0.80;;;;;;;20.33;28.66;100619.08;106007;1258;74843;-57
2023/05/11 09:52:57;;;;;;;1.90;0.90;;;;;;;20.38;29.24;100616.85;105753;1259;62558;-55
2023/05/11 09:55:24;;;;;;;2.10;0.70;;;;;;;20.66;28.08;100619.62;105641;1257;63139;-56
2023/05/11 09:57:54;;;;;;;2.00;0.80;;;;;;;20.80;27.99;100617.69;105885;1255;76237;-56
2023/05/11 10:00:21;;;;;;;3.60;1.00;;;;;;;21.15;28.26;100607.63;105654;1254;69585;-60
2023/05/11 10:02:59;;;;;;;6.90;1.20;;;;;;;21.58;28.31;100605.77;105602;1257;75001;-57
2023/05/11 10:05:26;;;;;;;0.90;0.60;;;;;;;22.04;28.32;100608.34;105689;1254;62297;-56
2023/05/11 10:08:01;;;;;;;3.00;0.80;;;;;;;22.25;27.59;100608.63;105756;1255;62388;-55
2023/05/11 10:10:30;;;;;;;3.00;1.00;;;;;;;22.34;27.12;100605.36;105521;1256;76602;-55
2023/05/11 10:12:58;;;;;;;3.60;1.00;;;;;;;22.34;27.10;100613.27;105771;1260;69429;-56
2023/05/11 10:15:29;;;;;;;2.30;1.20;;;;;;;22.27;26.45;100617.95;105752;1253;75258;-55
2023/05/11 10:17:58;;;;;;;3.80;1.00;;;;;;;21.99;26.88;100622.20;105706;1260;62816;-60
2023/05/11 10:20:26;;;;;;;3.30;1.00;;;;;;;21.60;26.81;100622.82;105392;1260;63136;-59
2023/05/11 10:22:54;;;;;;;2.10;0.80;;;;;;;21.20;27.35;100619.67;106468;1257;76243;-57
2023/05/11 10:25:22;;;;;;;2.20;0.80;;;;;;;21.10;27.79;100619.55;105910;1260;69078;-56
2023/05/11 10:27:50;;;;;;;2.20;1.10;;;;;;;21.09;27.58;100616.55;105939;1254;75469;-57
2023/05/11 10:30:17;;;;;;;2.70;1.10;;;;;;;21.06;27.48;100617.30;105974;1257;62379;-57
2023/05/11 10:32:48;;;;;;;3.80;1.40;;;;;;;21.02;27.78;100627.86;105727;1258;60489;-56
2023/05/11 10:35:16;;;;;;;2.80;1.20;;;;;;;21.06;28.02;100623.52;105550;1257;76465;-56
2023/05/11 10:37:43;;;;;;;2.40;0.80;;;;;;;21.16;28.21;100621.85;105674;1257;68517;-58
2023/05/11 10:40:10;;;;;;;1.90;1.00;;;;;;;21.37;27.70;100623.66;105662;1257;75146;-60
2023/05/11 10:42:44;;;;;;;3.00;1.10;;;;;;;21.34;27.06;100623.91;105755;1256;63168;-55
2023/05/11 10:45:22;;;;;;;2.50;1.00;;;;;;;21.15;27.50;100624.29;105382;1255;62780;-55
2023/05/11 10:47:58;;;;;;;2.70;1.20;;;;;;;21.04;27.65;100625.30;105432;1258;75991;-59
2023/05/11 10:50:47;;;;;;;2.30;1.30;;;;;;;20.90;27.88;100621.95;105486;1254;69279;-61
2023/05/11 10:53:33;;;;;;;4.40;1.10;;;;;;;20.82;28.29;100624.74;105526;1257;75196;-55
2023/05/11 10:56:16;;;;;;;1.70;0.90;;;;;;;20.91;28.72;100627.59;105240;1260;62633;-56
2023/05/11 10:59:02;;;;;;;2.60;1.00;;;;;;;21.03;28.85;100625.16;105352;1260;60821;-55
2023/05/11 11:01:39;;;;;;;3.30;1.30;;;;;;;21.22;28.51;100620.56;105265;1256;75338;-57
2023/05/11 11:04:08;;;;;;;5.70;1.50;;;;;;;21.32;28.39;100622.58;105249;1257;69299;-57
2023/05/11 11:06:42;;;;;;;2.70;1.20;;;;;;;21.28;28.57;100625.38;105339;1254;75311;-59
2023/05/11 11:09:14;;;;;;;2.20;1.10;;;;;;;21.15;28.27;100622.42;105387;1255;60831;-57
2023/05/11 11:11:45;;;;;;;2.00;0.80;;;;;;;20.94;28.66;100626.63;105507;1254;61691;-57
2023/05/11 11:14:13;;;;;;;3.70;1.20;;;;;;;20.79;29.14;100629.62;105360;1255;75398;-59
2023/05/11 11:17:15;;;;;;;2.10;0.90;;;;;;;20.68;28.97;100634.55;105440;1260;68755;-57
2023/05/11 11:19:43;;;;;;;5.20;1.30;;;;;;;20.39;28.62;100633.72;105384;1260;75517;-55
2023/05/11 11:22:36;;;;;;;2.70;1.10;;;;;;;20.16;28.60;100635.64;105250;1257;63395;-57
2023/05/11 11:25:10;;;;;;;2.70;1.10;;;;;;;20.03;29.09;100634.65;105217;1254;61661;-56
2023/05/11 11:27:43;;;;;;;4.50;1.30;;;;;;;20.00;29.32;100632.64;105404;1252;76413;-56